Time;durP1;ratioP1;P1;durP2;ratioP2;P2;SDS_P1;SDS_P2;PMS_P1;PMS_P2;Temp;Humidity;BMP_temperature;BMP_pressure;BME280_temperature;BME280_humidity;BME280_pressure;Samples;Min_cycle;Max_cycle;Signal;HPM_P1;HPM_P2
2022/05/11 00:01:27;;;;;;;17.27;15.57;;;15.10;99.90;;;;;;5070254;28;20511;-66
2022/05/11 00:03:54;;;;;;;18.40;16.70;;;15.20;99.90;;;;;;5070765;28;20457;-66
2022/05/11 00:06:22;;;;;;;18.80;16.90;;;15.10;99.90;;;;;;5070598;28;21323;-65
2022/05/11 00:08:49;;;;;;;19.03;17.33;;;15.10;99.90;;;;;;5071121;28;20467;-66
2022/05/11 00:11:16;;;;;;;19.97;17.97;;;15.10;99.90;;;;;;5070306;28;20969;-66
2022/05/11 00:13:44;;;;;;;21.43;18.17;;;15.10;99.90;;;;;;5070267;28;20465;-66
2022/05/11 00:16:11;;;;;;;17.40;15.70;;;15.10;99.90;;;;;;5070303;28;20457;-66
2022/05/11 00:18:37;;;;;;;18.57;16.90;;;15.00;99.90;;;;;;5070319;28;20471;-66
2022/05/11 00:21:05;;;;;;;21.43;18.90;;;15.00;99.90;;;;;;5070015;28;21177;-66
2022/05/11 00:23:33;;;;;;;20.77;17.97;;;14.90;99.90;;;;;;5070624;28;20478;-67
2022/05/11 00:26:00;;;;;;;23.50;19.13;;;14.90;99.90;;;;;;5070458;28;20910;-66
2022/05/11 00:28:27;;;;;;;21.43;19.47;;;14.80;99.90;;;;;;5070350;28;20922;-67
2022/05/11 00:30:54;;;;;;;19.80;17.90;;;14.70;99.90;;;;;;5070104;28;20450;-66
2022/05/11 00:33:22;;;;;;;20.80;18.70;;;14.70;99.90;;;;;;5070052;28;20455;-66
2022/05/11 00:35:51;;;;;;;21.30;19.10;;;14.70;99.90;;;;;;5070449;28;20443;-66
2022/05/11 00:38:21;;;;;;;20.70;18.60;;;14.60;99.90;;;;;;5070006;28;20529;-66
2022/05/11 00:40:52;;;;;;;21.73;19.40;;;14.60;99.90;;;;;;5069841;28;20478;-66
2022/05/11 00:43:27;;;;;;;20.97;18.93;;;14.60;99.90;;;;;;5069866;28;20450;-66
2022/05/11 00:45:59;;;;;;;22.83;19.10;;;14.60;99.90;;;;;;5069949;28;20843;-66
2022/05/11 00:51:13;;;;;;;24.20;21.63;;;14.40;99.90;;;;;;5069717;28;20407;-66
2022/05/11 00:53:44;;;;;;;20.17;18.17;;;14.40;99.90;;;;;;5069840;28;20447;-66
2022/05/11 00:56:13;;;;;;;21.73;19.40;;;14.40;99.90;;;;;;5069836;28;20983;-66
2022/05/11 00:58:43;;;;;;;22.23;20.03;;;14.40;99.90;;;;;;5069843;28;20462;-66
2022/05/11 01:01:10;;;;;;;20.87;18.77;;;14.30;99.90;;;;;;5069651;28;20874;-66
2022/05/11 01:03:42;;;;;;;21.50;19.20;;;14.30;99.90;;;;;;5069725;28;20442;-67
2022/05/11 01:06:13;;;;;;;22.10;19.80;;;14.30;99.90;;;;;;5069849;28;20462;-67
2022/05/11 01:08:40;;;;;;;23.80;21.43;;;14.10;99.90;;;;;;5069575;28;20471;-65
2022/05/11 01:11:08;;;;;;;24.23;21.83;;;14.10;99.90;;;;;;5069286;28;20447;-66
2022/05/11 01:13:39;;;;;;;24.87;22.20;;;14.20;99.90;;;;;;5069781;28;20447;-66
2022/05/11 01:16:06;;;;;;;23.90;19.80;;;14.20;99.90;;;;;;5069553;28;21085;-66
2022/05/11 01:18:33;;;;;;;22.90;20.50;;;14.20;99.90;;;;;;5069338;28;20553;-66
2022/05/11 01:21:03;;;;;;;22.43;20.10;;;14.10;99.90;;;;;;5069268;28;20483;-66
2022/05/11 01:23:37;;;;;;;20.50;18.50;;;14.20;99.90;;;;;;5069762;28;20458;-65
2022/05/11 01:26:06;;;;;;;20.60;18.60;;;14.10;99.90;;;;;;5069298;28;20448;-66
2022/05/11 01:28:33;;;;;;;21.40;19.30;;;14.10;99.90;;;;;;5069380;28;20550;-66
2022/05/11 01:31:04;;;;;;;21.57;19.47;;;14.00;99.90;;;;;;5069009;28;20942;-67
2022/05/11 01:33:32;;;;;;;22.37;20.07;;;14.00;99.90;;;;;;5069456;28;20458;-66
2022/05/11 01:36:07;;;;;;;22.00;19.70;;;13.90;99.90;;;;;;5069173;28;20818;-66
2022/05/11 01:38:40;;;;;;;22.10;20.03;;;13.90;99.90;;;;;;5069531;28;20463;-65
2022/05/11 01:41:09;;;;;;;22.97;20.57;;;13.80;99.90;;;;;;5068916;28;20489;-65
2022/05/11 01:43:38;;;;;;;22.03;19.70;;;13.80;99.90;;;;;;5069396;28;20562;-66
2022/05/11 01:46:06;;;;;;;23.57;21.00;;;13.80;99.90;;;;;;5069144;28;20450;-67
2022/05/11 01:48:33;;;;;;;21.40;18.77;;;13.70;99.90;;;;;;5069523;28;20467;-66
2022/05/11 01:51:00;;;;;;;23.40;19.50;;;13.60;99.90;;;;;;5069409;28;20439;-66
2022/05/11 01:53:27;;;;;;;21.10;19.10;;;13.60;99.90;;;;;;5069638;28;20439;-65
2022/05/11 01:55:54;;;;;;;23.10;20.93;;;13.50;99.90;;;;;;5069583;28;20540;-66
2022/05/11 01:58:23;;;;;;;21.73;19.47;;;13.50;99.90;;;;;;5069333;28;20890;-66
2022/05/11 02:00:50;;;;;;;21.90;19.70;;;13.50;99.90;;;;;;5069148;28;20447;-66
2022/05/11 02:03:18;;;;;;;23.47;21.27;;;13.50;99.90;;;;;;5069500;28;20493;-66
2022/05/11 02:08:31;;;;;;;21.90;19.63;;;13.50;99.90;;;;;;5069361;28;20443;-66
2022/05/11 02:10:58;;;;;;;22.83;20.53;;;13.40;99.90;;;;;;5069081;28;20447;-66
2022/05/11 02:13:28;;;;;;;20.57;18.43;;;13.40;99.90;;;;;;5069230;28;20447;-66
2022/05/11 02:15:55;;;;;;;23.07;20.80;;;13.40;99.90;;;;;;5070294;28;20455;-65
2022/05/11 02:18:22;;;;;;;21.97;19.57;;;13.30;99.90;;;;;;5069102;28;20478;-66
2022/05/11 02:20:49;;;;;;;24.70;22.07;;;13.30;99.90;;;;;;5068999;28;20451;-66
2022/05/11 02:23:18;;;;;;;22.33;19.93;;;13.40;99.90;;;;;;5069265;28;20493;-66
2022/05/11 02:25:45;;;;;;;24.20;21.67;;;13.40;99.90;;;;;;5068816;28;20457;-67
2022/05/11 02:28:13;;;;;;;22.80;20.40;;;13.40;99.90;;;;;;5068803;28;20467;-66
2022/05/11 02:30:43;;;;;;;20.80;18.60;;;13.40;99.90;;;;;;5068598;28;20447;-66
2022/05/11 02:33:10;;;;;;;20.80;18.70;;;13.40;99.90;;;;;;5069253;28;20847;-65
2022/05/11 02:35:38;;;;;;;20.20;18.17;;;13.30;99.90;;;;;;5068746;28;20449;-66
2022/05/11 02:38:10;;;;;;;20.53;18.63;;;13.30;99.90;;;;;;5070547;28;20473;-66
2022/05/11 02:40:39;;;;;;;23.13;20.93;;;13.30;99.90;;;;;;5072733;28;20443;-65
2022/05/11 02:43:08;;;;;;;21.77;19.57;;;13.40;99.90;;;;;;5073348;28;20475;-66
2022/05/11 02:45:36;;;;;;;19.60;17.80;;;13.30;99.90;;;;;;5088229;28;20454;-65
2022/05/11 02:48:06;;;;;;;21.13;18.97;;;13.30;99.90;;;;;;5080417;28;20505;-66
2022/05/11 02:50:36;;;;;;;19.43;17.63;;;13.30;99.90;;;;;;5079904;28;20439;-65
2022/05/11 02:53:07;;;;;;;21.70;19.40;;;13.30;99.90;;;;;;5073180;28;20538;-66
2022/05/11 02:55:35;;;;;;;21.73;19.47;;;13.30;99.90;;;;;;5088822;28;20533;-66
2022/05/11 02:58:02;;;;;;;21.43;19.43;;;13.20;99.90;;;;;;5092264;28;20507;-65
2022/05/11 03:00:29;;;;;;;22.00;19.90;;;13.20;99.90;;;;;;5091969;28;20809;-66
2022/05/11 03:02:56;;;;;;;22.27;19.87;;;13.20;99.90;;;;;;5091729;28;20485;-66
2022/05/11 03:05:25;;;;;;;22.40;20.07;;;13.10;99.90;;;;;;5092118;28;20445;-66
2022/05/11 03:07:51;;;;;;;20.20;18.20;;;13.00;99.90;;;;;;5092373;28;20469;-66
2022/05/11 03:10:18;;;;;;;21.13;18.97;;;13.00;99.90;;;;;;5091732;28;20533;-66
2022/05/11 03:12:45;;;;;;;22.60;20.30;;;13.00;99.90;;;;;;5091987;28;20434;-66
2022/05/11 03:15:12;;;;;;;20.73;18.73;;;13.00;99.90;;;;;;5092162;28;20450;-66
2022/05/11 03:17:39;;;;;;;23.83;19.90;;;13.00;99.90;;;;;;5091712;28;20477;-65
2022/05/11 03:20:09;;;;;;;20.23;18.33;;;13.00;99.90;;;;;;5092183;28;20430;-66
2022/05/11 03:22:38;;;;;;;20.07;18.17;;;13.00;99.90;;;;;;5091919;28;20486;-66
2022/05/11 03:25:06;;;;;;;21.03;18.90;;;13.00;99.90;;;;;;5092128;28;20450;-65
2022/05/11 03:27:33;;;;;;;21.37;19.37;;;13.00;99.90;;;;;;5091896;28;20494;-66
2022/05/11 03:30:00;;;;;;;20.70;18.77;;;13.00;99.90;;;;;;5091680;28;20454;-65
2022/05/11 03:35:11;;;;;;;20.90;18.87;;;12.90;99.90;;;;;;5092022;28;20475;-65
2022/05/11 03:37:39;;;;;;;20.80;18.60;;;12.80;99.90;;;;;;5091886;28;20466;-66
2022/05/11 03:40:09;;;;;;;20.20;18.20;;;12.80;99.90;;;;;;5091365;28;20473;-66
2022/05/11 03:42:37;;;;;;;20.47;18.47;;;12.80;99.90;;;;;;5091961;28;20486;-66
2022/05/11 03:45:09;;;;;;;20.30;18.30;;;12.80;99.90;;;;;;5091352;28;20446;-65
2022/05/11 03:47:36;;;;;;;19.63;17.83;;;12.80;99.90;;;;;;5091634;28;20474;-65
2022/05/11 03:50:03;;;;;;;19.87;17.87;;;12.80;99.90;;;;;;5089943;28;20446;-66
2022/05/11 03:52:30;;;;;;;21.57;19.37;;;12.80;99.90;;;;;;5091444;28;20438;-66
2022/05/11 03:54:58;;;;;;;20.10;18.10;;;12.70;99.90;;;;;;5091208;28;20448;-66
2022/05/11 03:57:25;;;;;;;20.67;18.63;;;12.70;99.90;;;;;;5091447;28;20533;-65
2022/05/11 03:59:52;;;;;;;21.00;18.83;;;12.70;99.90;;;;;;5090929;28;20472;-65
2022/05/11 04:02:19;;;;;;;21.43;19.27;;;12.70;99.90;;;;;;5091645;28;20478;-67
2022/05/11 04:04:46;;;;;;;19.90;17.90;;;12.70;99.90;;;;;;5091583;28;20461;-67
2022/05/11 04:07:13;;;;;;;24.17;19.93;;;12.70;99.90;;;;;;5091002;28;20442;-66
2022/05/11 04:09:40;;;;;;;20.13;18.00;;;12.70;99.90;;;;;;5091086;28;21044;-66
2022/05/11 04:12:10;;;;;;;21.37;19.20;;;12.70;99.90;;;;;;5090516;28;20438;-66
2022/05/11 04:14:36;;;;;;;22.30;19.93;;;12.70;99.90;;;;;;5083663;28;20537;-66
2022/05/11 04:17:04;;;;;;;21.43;19.23;;;12.80;99.90;;;;;;5088941;28;20448;-66
2022/05/11 04:19:31;;;;;;;21.60;18.93;;;12.80;99.90;;;;;;5090278;28;20477;-65
2022/05/11 04:21:58;;;;;;;21.70;19.57;;;12.90;99.90;;;;;;5090228;28;20478;-66
2022/05/11 04:24:25;;;;;;;22.30;20.10;;;13.00;99.90;;;;;;5090777;28;20537;-65
2022/05/11 04:26:52;;;;;;;20.03;18.00;;;13.10;99.90;;;;;;5090826;28;20453;-65
2022/05/11 04:29:20;;;;;;;21.93;17.80;;;13.10;99.90;;;;;;5092097;28;20492;-65
2022/05/11 04:31:53;;;;;;;19.40;17.63;;;13.20;99.90;;;;;;5092779;28;20902;-65
2022/05/11 04:34:20;;;;;;;20.03;18.03;;;13.20;99.90;;;;;;5093142;28;20450;-64
2022/05/11 04:36:47;;;;;;;19.03;17.23;;;13.30;99.90;;;;;;5091019;28;20454;-64
2022/05/11 04:39:14;;;;;;;18.87;16.97;;;13.50;99.90;;;;;;5086994;28;20462;-66
2022/05/11 04:41:41;;;;;;;19.47;17.57;;;13.50;99.90;;;;;;5090613;28;20542;-65
2022/05/11 04:44:08;;;;;;;19.07;17.00;;;13.60;99.90;;;;;;5090593;28;20434;-64
2022/05/11 04:46:37;;;;;;;18.80;16.97;;;13.60;99.90;;;;;;5090564;28;20938;-63
2022/05/11 04:49:19;;;;;;;16.63;14.63;;;13.70;99.90;;;;;;5090353;28;20473;-66
2022/05/11 04:51:47;;;;;;;16.53;14.57;;;13.80;99.90;;;;;;5090292;28;20880;-64
2022/05/11 04:54:14;;;;;;;16.03;14.33;;;14.00;99.90;;;;;;5090415;28;20439;-70
2022/05/11 04:56:41;;;;;;;17.43;15.73;;;14.10;99.90;;;;;;5090436;28;20529;-64
2022/05/11 04:59:08;;;;;;;15.73;14.23;;;14.20;99.90;;;;;;5089950;28;20465;-65
2022/05/11 05:01:37;;;;;;;14.60;13.20;;;14.30;99.90;;;;;;5084308;28;20470;-64
2022/05/11 05:04:04;;;;;;;15.13;13.53;;;14.30;99.90;;;;;;5092912;28;20479;-65
2022/05/11 05:06:33;;;;;;;14.60;13.10;;;14.40;99.90;;;;;;5106028;28;20449;-67
2022/05/11 05:09:00;;;;;;;15.93;12.87;;;14.40;99.90;;;;;;5101060;28;20466;-66
2022/05/11 05:11:27;;;;;;;13.43;12.10;;;14.50;99.90;;;;;;5109744;28;20449;-66
2022/05/11 05:13:54;;;;;;;13.77;12.57;;;14.60;99.90;;;;;;5095132;28;20446;-66
2022/05/11 05:16:20;;;;;;;12.83;11.63;;;14.80;99.90;;;;;;5076567;28;20452;-66
2022/05/11 05:18:49;;;;;;;14.63;12.90;;;14.90;99.90;;;;;;5081805;28;20484;-67
2022/05/11 05:21:16;;;;;;;12.50;11.30;;;15.00;99.90;;;;;;5083482;28;20477;-66
2022/05/11 05:23:42;;;;;;;15.03;12.00;;;15.10;99.90;;;;;;5089861;28;20482;-66
2022/05/11 05:26:10;;;;;;;12.63;11.43;;;15.10;99.90;;;;;;5091352;28;20449;-64
2022/05/11 05:31:22;;;;;;;11.03;9.93;;;15.40;99.90;;;;;;5088943;28;20421;-64
2022/05/11 05:33:55;;;;;;;12.53;11.33;;;15.50;99.90;;;;;;5088866;28;20524;-65
2022/05/11 05:36:22;;;;;;;11.90;10.70;;;15.50;99.90;;;;;;5089634;28;20454;-65
2022/05/11 05:38:49;;;;;;;12.53;11.33;;;15.70;99.90;;;;;;5089503;28;20850;-64
2022/05/11 05:41:16;;;;;;;12.80;11.60;;;15.80;99.90;;;;;;5086559;28;20479;-64
2022/05/11 05:43:43;;;;;;;11.40;10.20;;;15.90;99.90;;;;;;5084187;28;20564;-65
2022/05/11 05:46:09;;;;;;;11.77;10.67;;;16.10;99.90;;;;;;5089933;28;20441;-65
2022/05/11 05:48:36;;;;;;;11.17;10.07;;;16.20;99.90;;;;;;5089733;28;20462;-65
2022/05/11 05:51:07;;;;;;;12.03;10.50;;;16.30;99.90;;;;;;5089347;28;20489;-65
2022/05/11 05:53:34;;;;;;;10.40;9.40;;;16.40;99.90;;;;;;5089904;28;20438;-65
2022/05/11 05:56:01;;;;;;;9.77;8.87;;;16.40;99.90;;;;;;5089463;28;20445;-65
2022/05/11 05:58:28;;;;;;;10.20;9.20;;;16.50;99.90;;;;;;5089864;28;20463;-65
2022/05/11 06:00:56;;;;;;;10.77;8.70;;;16.60;99.90;;;;;;5089120;28;20937;-66
2022/05/11 06:03:24;;;;;;;9.87;8.60;;;16.60;99.90;;;;;;5090850;28;20513;-65
2022/05/11 06:05:52;;;;;;;9.80;8.77;;;16.70;99.90;;;;;;5089615;28;20537;-65
2022/05/11 06:08:21;;;;;;;10.50;8.90;;;16.90;99.90;;;;;;5089372;28;20465;-65
2022/05/11 06:10:49;;;;;;;10.13;8.87;;;17.00;99.90;;;;;;5088951;28;20503;-64
2022/05/11 06:13:20;;;;;;;12.60;9.10;;;17.10;99.90;;;;;;5092028;28;20446;-63
2022/05/11 06:15:47;;;;;;;9.47;8.37;;;17.20;99.90;;;;;;5093412;28;20844;-65
2022/05/11 06:18:14;;;;;;;11.87;8.40;;;17.30;99.90;;;;;;5093268;28;20523;-64
2022/05/11 06:20:41;;;;;;;8.50;7.70;;;17.50;99.90;;;;;;5092969;28;20446;-64
2022/05/11 06:23:08;;;;;;;12.63;8.67;;;17.60;99.90;;;;;;5093012;28;20470;-64
2022/05/11 06:25:38;;;;;;;9.30;8.40;;;17.70;99.90;;;;;;5093077;28;20941;-65
2022/05/11 06:28:07;;;;;;;8.00;7.20;;;17.90;99.90;;;;;;5093341;28;20461;-65
2022/05/11 06:30:34;;;;;;;9.73;8.63;;;18.10;99.90;;;;;;5092946;28;20454;-64
2022/05/11 06:33:02;;;;;;;8.70;7.40;;;18.20;99.90;;;;;;5092964;28;20567;-64
2022/05/11 06:35:30;;;;;;;8.20;7.40;;;18.40;99.90;;;;;;5092847;28;20548;-64
2022/05/11 06:38:01;;;;;;;9.43;7.20;;;18.50;99.90;;;;;;5092602;28;20470;-64
2022/05/11 06:40:28;;;;;;;8.97;7.83;;;18.60;99.90;;;;;;5092467;28;20453;-64
2022/05/11 06:42:56;;;;;;;10.40;8.07;;;18.70;99.90;;;;;;5092654;28;20488;-64
2022/05/11 06:45:24;;;;;;;8.30;7.53;;;18.90;99.90;;;;;;5092639;28;20452;-64
2022/05/11 06:47:53;;;;;;;8.80;7.90;;;18.90;99.90;;;;;;5092615;28;20473;-64
2022/05/11 06:50:20;;;;;;;9.03;8.13;;;19.00;99.90;;;;;;5092259;28;20458;-65
2022/05/11 06:52:46;;;;;;;9.33;8.43;;;19.10;99.90;;;;;;5092765;28;20825;-65
2022/05/11 07:00:43;;;;;;;7.77;6.80;;;19.60;99.90;;;;;;5092333;28;20421;-65
2022/05/11 07:03:10;;;;;;;7.70;7.00;;;19.70;99.90;;;;;;5092741;28;20564;-65
2022/05/11 07:05:37;;;;;;;7.83;7.13;;;19.70;99.90;;;;;;5092405;28;20446;-65
2022/05/11 07:08:04;;;;;;;8.17;7.37;;;19.80;99.90;;;;;;5092534;28;20466;-65
2022/05/11 07:10:32;;;;;;;7.70;6.63;;;20.00;99.90;;;;;;5092086;28;20537;-64
2022/05/11 07:12:59;;;;;;;7.60;6.90;;;20.10;99.90;;;;;;5092467;28;20502;-64
2022/05/11 07:15:26;;;;;;;7.73;6.80;;;20.20;99.90;;;;;;5092391;28;20461;-65
2022/05/11 07:17:54;;;;;;;6.23;5.63;;;20.40;99.90;;;;;;5092202;28;20486;-65
2022/05/11 07:20:23;;;;;;;7.27;5.73;;;20.50;99.90;;;;;;5092071;28;20454;-64
2022/05/11 07:22:50;;;;;;;7.73;6.20;;;20.60;99.90;;;;;;5092407;28;20493;-65
2022/05/11 07:25:19;;;;;;;7.07;6.47;;;20.70;99.90;;;;;;5092137;28;20941;-64
2022/05/11 07:27:46;;;;;;;7.23;6.53;;;20.80;99.90;;;;;;5092110;28;20470;-65
2022/05/11 07:30:21;;;;;;;8.30;6.90;;;20.90;99.90;;;;;;5092065;28;20453;-65
2022/05/11 07:32:48;;;;;;;6.97;6.33;;;21.00;99.90;;;;;;5092571;28;20437;-65
2022/05/11 07:35:14;;;;;;;8.93;6.27;;;21.10;99.90;;;;;;5091976;28;20941;-65
2022/05/11 07:37:43;;;;;;;8.77;6.47;;;21.20;99.90;;;;;;5092038;28;20549;-66
2022/05/11 07:40:11;;;;;;;7.00;5.97;;;21.30;99.90;;;;;;5092274;28;20442;-65
2022/05/11 07:42:38;;;;;;;7.97;6.30;;;21.40;99.90;;;;;;5091622;28;20450;-65
2022/05/11 07:45:06;;;;;;;7.47;6.67;;;21.50;99.90;;;;;;5091573;28;20446;-64
2022/05/11 07:47:34;;;;;;;7.13;6.43;;;21.60;99.90;;;;;;5091608;28;20466;-65
2022/05/11 07:50:01;;;;;;;7.23;6.53;;;21.80;99.90;;;;;;5091358;28;20535;-65
2022/05/11 07:52:28;;;;;;;6.47;5.83;;;21.90;99.90;;;;;;5091501;28;20445;-65
2022/05/11 07:54:54;;;;;;;7.63;6.80;;;22.00;99.90;;;;;;5091256;28;20434;-65
2022/05/11 08:00:08;;;;;;;6.30;5.70;;;22.20;99.90;;;;;;5091187;28;20534;-65
2022/05/11 08:02:39;;;;;;;7.07;5.90;;;22.30;99.90;;;;;;5090431;28;20433;-66
2022/05/11 08:05:08;;;;;;;6.87;6.27;;;22.40;99.90;;;;;;5091486;28;20558;-65
2022/05/11 08:07:39;;;;;;;6.80;5.10;;;22.50;99.90;;;;;;5091114;28;20470;-65
2022/05/11 08:10:08;;;;;;;6.50;5.53;;;22.60;99.90;;;;;;5091150;28;20465;-66
2022/05/11 08:12:35;;;;;;;5.80;4.93;;;22.80;99.90;;;;;;5091236;28;20446;-66
2022/05/11 08:15:03;;;;;;;5.20;4.70;;;22.90;99.90;;;;;;5091095;28;20442;-66
2022/05/11 08:17:33;;;;;;;5.37;4.80;;;23.00;99.90;;;;;;5090955;28;20903;-70
2022/05/11 08:20:02;;;;;;;5.70;5.10;;;23.10;99.90;;;;;;5090815;28;20983;-64
2022/05/11 08:22:30;;;;;;;7.83;5.00;;;23.30;99.90;;;;;;5091364;28;20446;-65
2022/05/11 08:24:57;;;;;;;4.57;4.17;;;23.60;99.90;;;;;;5091027;28;20482;-65
2022/05/11 08:27:26;;;;;;;5.60;5.10;;;23.70;99.90;;;;;;5090923;28;20456;-65
2022/05/11 08:35:25;;;;;;;4.87;4.37;;;24.20;99.00;;;;;;5090015;28;20476;-64
2022/05/11 08:37:52;;;;;;;4.40;3.47;;;24.10;98.50;;;;;;5090586;28;20478;-65
2022/05/11 08:40:32;;;;;;;6.17;4.10;;;24.20;99.00;;;;;;5090378;28;20446;-65
2022/05/11 08:43:02;;;;;;;4.20;3.80;;;24.20;97.20;;;;;;5090254;28;20438;-65
2022/05/11 08:45:37;;;;;;;6.83;4.33;;;24.30;97.50;;;;;;5090618;28;20442;-66
2022/05/11 08:48:08;;;;;;;4.17;3.77;;;24.40;97.00;;;;;;5090316;28;20469;-65
2022/05/11 08:50:42;;;;;;;4.70;4.20;;;24.50;98.20;;;;;;5090020;28;20444;-65
2022/05/11 08:53:27;;;;;;;4.63;4.13;;;24.50;97.00;;;;;;5090260;28;20454;-65
2022/05/11 08:55:56;;;;;;;4.30;3.80;;;24.70;95.50;;;;;;5090934;28;20495;-66
2022/05/11 08:58:26;;;;;;;5.53;4.03;;;24.70;96.10;;;;;;5090560;28;20462;-65
2022/05/11 09:00:56;;;;;;;5.10;4.30;;;24.90;96.10;;;;;;5090080;28;20671;-65
2022/05/11 09:03:31;;;;;;;5.07;4.57;;;24.80;94.50;;;;;;5090174;28;20624;-66
2022/05/11 09:06:00;;;;;;;4.57;3.73;;;24.80;95.50;;;;;;5090437;28;20532;-67
2022/05/11 09:08:28;;;;;;;5.40;4.20;;;25.00;96.20;;;;;;5090220;28;20481;-66
2022/05/11 09:10:54;;;;;;;6.00;4.60;;;25.20;95.80;;;;;;5089844;28;20450;-66
2022/05/11 09:13:23;;;;;;;6.00;4.20;;;25.30;94.40;;;;;;5089963;28;20541;-65
2022/05/11 09:15:58;;;;;;;5.77;4.73;;;25.40;95.00;;;;;;5090020;28;20851;-65
2022/05/11 09:18:36;;;;;;;5.30;4.80;;;25.50;93.60;;;;;;5089706;28;20473;-65
2022/05/11 09:21:19;;;;;;;6.57;5.00;;;25.40;94.10;;;;;;5089798;28;20454;-65
2022/05/11 09:23:59;;;;;;;4.90;4.10;;;25.40;93.20;;;;;;5089937;28;20478;-64
2022/05/11 09:26:32;;;;;;;6.50;4.83;;;25.50;95.10;;;;;;5089815;28;20441;-64
2022/05/11 09:29:16;;;;;;;5.80;4.97;;;25.70;93.60;;;;;;5090052;28;20463;-66
2022/05/11 09:31:45;;;;;;;5.70;5.20;;;25.90;93.40;;;;;;5089696;28;20527;-66
2022/05/11 09:34:23;;;;;;;5.33;4.83;;;25.90;92.90;;;;;;5089783;28;20446;-65
2022/05/11 09:36:57;;;;;;;6.00;5.00;;;25.80;93.20;;;;;;5089763;28;20448;-65
2022/05/11 09:39:27;;;;;;;5.60;5.10;;;25.80;92.20;;;;;;5089974;28;20541;-66
2022/05/11 09:42:01;;;;;;;6.70;4.87;;;25.80;92.90;;;;;;5089703;28;20450;-65
2022/05/11 09:44:42;;;;;;;5.63;4.97;;;26.00;93.90;;;;;;5089700;28;20531;-65
2022/05/11 09:47:25;;;;;;;5.80;5.20;;;26.40;92.80;;;;;;5091602;28;20441;-66
2022/05/11 09:49:52;;;;;;;6.20;5.60;;;27.00;91.30;;;;;;5093847;28;20446;-65
2022/05/11 09:52:32;;;;;;;5.67;5.17;;;27.40;91.10;;;;;;5094087;28;20446;-65
2022/05/11 09:54:59;;;;;;;5.60;4.83;;;27.50;90.90;;;;;;5094050;28;20507;-65
2022/05/11 09:57:28;;;;;;;8.40;5.83;;;28.10;90.50;;;;;;5093827;28;20446;-66
2022/05/11 10:00:15;;;;;;;7.67;5.13;;;28.40;89.20;;;;;;5093600;28;20521;-66
2022/05/11 10:02:47;;;;;;;6.10;5.23;;;28.50;89.20;;;;;;5093905;28;20457;-66
2022/05/11 10:05:19;;;;;;;5.73;5.10;;;28.30;86.80;;;;;;5093774;28;20486;-65
2022/05/11 10:07:49;;;;;;;7.30;6.23;;;28.30;90.40;;;;;;5093868;28;20549;-66
2022/05/11 10:10:26;;;;;;;6.00;5.40;;;28.30;87.20;;;;;;5093346;28;21257;-66
2022/05/11 10:12:55;;;;;;;7.13;4.87;;;28.60;87.90;;;;;;5093960;28;20812;-65
2022/05/11 10:24:22;;;;;;;7.70;5.60;;;30.50;81.10;;;;;;5030716;28;20561;-66
2022/05/11 10:27:00;;;;;;;5.77;5.27;;;30.30;80.90;;;;;;5077067;28;20449;-64
2022/05/11 10:29:44;;;;;;;6.10;5.50;;;30.00;80.70;;;;;;5093236;28;20560;-66
2022/05/11 10:32:17;;;;;;;6.10;5.50;;;29.30;81.50;;;;;;5093250;28;20464;-65
2022/05/11 10:34:53;;;;;;;5.83;5.20;;;29.00;83.40;;;;;;5092945;28;20529;-66
2022/05/11 10:37:27;;;;;;;6.53;5.80;;;29.20;84.70;;;;;;5092980;28;20908;-66
2022/05/11 10:40:07;;;;;;;6.03;5.43;;;29.60;81.00;;;;;;5092830;28;20449;-65
2022/05/11 10:42:36;;;;;;;5.73;5.23;;;29.50;79.10;;;;;;5093177;28;20442;-66
2022/05/11 10:45:14;;;;;;;5.27;4.80;;;29.70;80.60;;;;;;5092941;28;20560;-66
2022/05/11 10:47:57;;;;;;;7.10;5.73;;;30.00;80.00;;;;;;5092841;28;20458;-65
2022/05/11 10:50:32;;;;;;;7.73;6.10;;;29.80;76.20;;;;;;5092392;28;20964;-66
2022/05/11 10:53:24;;;;;;;8.67;5.27;;;29.90;78.30;;;;;;5092857;28;20477;-64
2022/05/11 10:56:07;;;;;;;6.00;5.33;;;30.30;76.10;;;;;;5089655;28;20480;-65
2022/05/11 10:58:57;;;;;;;6.40;5.60;;;30.00;76.50;;;;;;5092135;28;20518;-67
2022/05/11 11:01:26;;;;;;;5.43;4.93;;;29.80;75.20;;;;;;5092346;28;20445;-66
2022/05/11 11:04:25;;;;;;;6.07;5.00;;;29.90;76.10;;;;;;5092570;28;20446;-66
2022/05/11 11:07:12;;;;;;;6.03;4.50;;;30.10;76.80;;;;;;5085792;28;20450;-67
2022/05/11 11:09:50;;;;;;;5.50;5.00;;;29.60;73.80;;;;;;5092583;28;20477;-65
2022/05/11 11:12:32;;;;;;;5.13;4.63;;;29.70;71.00;;;;;;5092343;28;20549;-66
2022/05/11 11:15:02;;;;;;;6.67;5.30;;;30.20;75.20;;;;;;5092146;28;20777;-66
2022/05/11 11:17:30;;;;;;;4.63;3.97;;;30.80;69.50;;;;;;5075546;28;20471;-66
2022/05/11 11:19:59;;;;;;;6.40;4.87;;;30.80;69.20;;;;;;5071598;28;20454;-66
2022/05/11 11:22:27;;;;;;;8.13;4.90;;;31.00;71.20;;;;;;5072002;28;20479;-66
2022/05/11 11:25:20;;;;;;;4.20;3.80;;;31.00;65.90;;;;;;5071799;28;20475;-65
2022/05/11 11:28:02;;;;;;;5.43;4.60;;;30.00;69.50;;;;;;5071907;28;20470;-66
2022/05/11 11:30:29;;;;;;;7.03;4.70;;;29.90;70.70;;;;;;5071546;28;20826;-65
2022/05/11 11:33:24;;;;;;;5.87;5.03;;;30.00;70.00;;;;;;5071901;28;20451;-66
2022/05/11 11:35:57;;;;;;;6.20;4.20;;;29.90;69.90;;;;;;5025014;28;20453;-65
2022/05/11 11:38:30;;;;;;;15.57;5.53;;;30.30;71.50;;;;;;5071687;28;20558;-64
2022/05/11 11:41:14;;;;;;;7.90;4.33;;;30.20;67.50;;;;;;5071404;28;20447;-67
2022/05/11 11:43:52;;;;;;;4.47;3.90;;;30.80;66.70;;;;;;5070771;28;21201;-65
2022/05/11 11:46:29;;;;;;;5.23;4.40;;;31.30;64.00;;;;;;5094171;28;20440;-65
2022/05/11 11:49:07;;;;;;;7.50;4.50;;;31.00;62.40;;;;;;5091338;28;20553;-64
2022/05/11 11:51:54;;;;;;;26.77;7.47;;;31.00;65.60;;;;;;5097114;28;20440;-65
2022/05/11 11:54:31;;;;;;;6.80;4.20;;;31.10;62.90;;;;;;5090522;28;20964;-65
2022/05/11 11:57:01;;;;;;;10.20;4.13;;;31.50;64.70;;;;;;5102046;28;20975;-67
2022/05/11 11:59:38;;;;;;;4.80;4.30;;;32.00;67.30;;;;;;5111429;28;20609;-64
2022/05/11 12:02:16;;;;;;;6.87;4.23;;;32.10;61.30;;;;;;5110627;28;20536;-65
2022/05/11 12:04:47;;;;;;;7.57;4.67;;;31.80;62.50;;;;;;5111711;28;20858;-64
2022/05/11 12:15:40;;;;;;;7.70;4.00;;;31.40;60.90;;;;;;5111450;28;20441;-65
2022/05/11 12:18:22;;;;;;;10.47;4.23;;;31.30;60.20;;;;;;5111241;28;20643;-65
2022/05/11 12:20:50;;;;;;;10.70;4.33;;;31.50;60.30;;;;;;5093251;28;20447;-64
2022/05/11 12:23:21;;;;;;;5.53;4.03;;;32.00;59.40;;;;;;5083827;28;20454;-64
2022/05/11 12:25:55;;;;;;;5.73;4.30;;;31.70;57.90;;;;;;5079907;28;20485;-64
2022/05/11 12:28:25;;;;;;;5.07;3.97;;;30.70;59.40;;;;;;5073970;28;20703;-64
2022/05/11 12:30:52;;;;;;;4.67;4.27;;;30.30;64.10;;;;;;5088193;28;21015;-65
2022/05/11 12:33:25;;;;;;;7.13;4.50;;;30.70;62.10;;;;;;5091142;28;20457;-64
2022/05/11 12:35:53;;;;;;;13.67;4.50;;;31.20;60.50;;;;;;5091016;28;20545;-64
2022/05/11 12:38:29;;;;;;;4.93;3.90;;;31.30;59.20;;;;;;5080881;28;20470;-62
2022/05/11 12:40:58;;;;;;;5.37;4.00;;;32.10;57.10;;;;;;5070810;28;20447;-63
2022/05/11 12:43:27;;;;;;;5.73;4.47;;;32.30;58.40;;;;;;5070385;28;20447;-64
2022/05/11 12:45:56;;;;;;;6.17;4.70;;;32.60;56.50;;;;;;5070323;28;20873;-64
2022/05/11 12:48:26;;;;;;;7.30;3.93;;;33.00;56.50;;;;;;5069918;28;20471;-62
2022/05/11 12:50:57;;;;;;;6.20;4.77;;;33.30;55.30;;;;;;5069709;28;20455;-65
2022/05/11 12:53:29;;;;;;;5.93;4.10;;;33.50;54.60;;;;;;5071364;28;20454;-65
2022/05/11 12:56:14;;;;;;;6.50;3.77;;;33.20;56.20;;;;;;5087875;28;21007;-66
2022/05/11 12:58:47;;;;;;;5.50;4.10;;;33.60;54.10;;;;;;5079848;28;20466;-69
2022/05/11 13:01:17;;;;;;;7.53;4.80;;;33.50;51.10;;;;;;5078163;28;20442;-64
2022/05/11 13:03:47;;;;;;;4.57;3.50;;;32.70;52.70;;;;;;5077227;28;20491;-65
2022/05/11 13:06:24;;;;;;;5.77;3.80;;;32.50;53.60;;;;;;5079166;28;20475;-66
2022/05/11 13:08:53;;;;;;;6.03;3.77;;;32.10;54.00;;;;;;5078081;28;20552;-64
2022/05/11 13:11:24;;;;;;;6.63;4.33;;;32.40;53.10;;;;;;5082691;28;20457;-66
2022/05/11 13:13:55;;;;;;;9.40;4.00;;;32.20;54.40;;;;;;5087787;28;20446;-66
2022/05/11 13:16:25;;;;;;;5.30;3.77;;;32.70;54.20;;;;;;5074480;28;20442;-64
2022/05/11 13:19:05;;;;;;;4.90;3.67;;;33.80;52.00;;;;;;5078926;28;20462;-66
2022/05/11 13:21:36;;;;;;;4.63;3.67;;;33.90;49.20;;;;;;5074376;28;20454;-66
2022/05/11 13:24:05;;;;;;;6.63;3.57;;;33.80;50.60;;;;;;5081390;28;20841;-66
2022/05/11 13:26:38;;;;;;;7.67;4.00;;;34.40;50.60;;;;;;5075955;28;20482;-66
2022/05/11 13:29:15;;;;;;;8.90;4.40;;;34.70;49.20;;;;;;5085709;28;21003;-66
2022/05/11 13:31:42;;;;;;;6.10;4.50;;;34.60;49.80;;;;;;5077317;28;20439;-65
2022/05/11 13:34:30;;;;;;;4.17;3.77;;;34.70;49.60;;;;;;5078672;28;20443;-66
2022/05/11 13:36:59;;;;;;;6.90;3.40;;;34.30;49.70;;;;;;5078453;28;20447;-66